YHM weather

John C. Munro Hamilton International Airport
Hamilton, Ontario, Canada

Public forecast

Using degrees Celsius for public forecast. Weather courtesy of forecast.io.

METAR (pilot weather report)

Retrieved 2019/04/21 00:00 UTC (37 minutes ago):

CYHM 210000Z 13004KT 6SM BR BKN005 OVC016 06/06 A2972 RMK SF7SC1 PRESRR SLP070

TAF (pilot weather forecast)

Forecast is more than 12 hours old.

Retrieved 2019/04/20 00:45 UTC (24 hours ago):

TAF TAF CYHM 202342Z 2100/2124 05005KT 5SM BR BKN004 OVC015 TEMPO 2100/2101 6SM BR SCT004 OVC015 FM210100 05005KT 6SM BR OVC004 TEMPO 2101/2104 11/2SM -DZ -SHRA BR OVC002 FM210400 VRB03KT 1/2SM -DZ FG VV002 TEMPO 2104/2106 2SM BR FM211400 19007KT P6SM FEW008 OVC012 FM211700 19006KT P6SM BKN025 FM212100 32005KT P6SM BKN030 RMK NXT FCST BY 210600Z